createdAt,value
2024-03-02T00:00:53.581Z,99.99
2024-03-02T00:01:53.507Z,99.99
2024-03-02T00:02:53.522Z,99.99
2024-03-02T00:03:53.633Z,99.99
2024-03-02T00:04:53.452Z,99.99
2024-03-02T00:05:53.449Z,99.99
2024-03-02T00:06:53.490Z,99.99
2024-03-02T00:07:53.457Z,99.99
2024-03-02T00:08:53.467Z,99.99
2024-03-02T00:09:53.498Z,99.99
2024-03-02T00:10:53.555Z,99.99
2024-03-02T00:11:53.548Z,99.99
2024-03-02T00:12:53.483Z,99.99
2024-03-02T00:13:53.425Z,99.99
2024-03-02T00:14:53.430Z,99.99
2024-03-02T00:15:53.544Z,99.99
2024-03-02T00:16:53.398Z,99.99
2024-03-02T00:17:53.489Z,99.99
2024-03-02T00:18:53.425Z,99.99
2024-03-02T00:19:53.387Z,99.99
2024-03-02T00:20:53.514Z,99.99
2024-03-02T00:21:53.460Z,99.99
2024-03-02T00:22:53.378Z,99.99
2024-03-02T00:23:53.517Z,99.99
2024-03-02T00:24:53.452Z,99.99
2024-03-02T00:25:53.357Z,99.99
2024-03-02T00:26:53.359Z,99.99
2024-03-02T00:27:53.422Z,99.99
2024-03-02T00:28:53.315Z,99.99
2024-03-02T00:29:53.324Z,99.99
2024-03-02T00:30:53.460Z,99.99
2024-03-02T00:31:53.342Z,99.99
2024-03-02T00:32:53.360Z,99.99
2024-03-02T00:33:53.377Z,99.99
2024-03-02T00:34:53.270Z,99.99
2024-03-02T00:35:53.326Z,99.99
2024-03-02T00:36:53.336Z,99.99
2024-03-02T00:37:53.290Z,99.99
2024-03-02T00:38:53.296Z,99.99
2024-03-02T00:39:53.319Z,99.99
2024-03-02T00:40:53.311Z,99.99
2024-03-02T00:41:53.248Z,99.99
2024-03-02T00:42:53.315Z,99.99
2024-03-02T00:43:53.294Z,99.99
2024-03-02T00:44:54.199Z,99.99
2024-03-02T00:45:53.272Z,99.99
2024-03-02T00:46:53.259Z,99.99
2024-03-02T00:47:53.271Z,99.99
2024-03-02T00:48:53.275Z,99.99
2024-03-02T00:49:53.275Z,99.99
2024-03-02T00:50:53.235Z,99.99
2024-03-02T00:51:53.445Z,99.99
2024-03-02T00:52:53.229Z,99.99
2024-03-02T00:53:53.190Z,99.99
2024-03-02T00:54:53.263Z,99.99
2024-03-02T00:55:53.210Z,99.99
2024-03-02T00:56:53.169Z,99.99
2024-03-02T00:57:53.193Z,99.99
2024-03-02T00:58:53.719Z,99.99
2024-03-02T00:59:53.403Z,99.99
2024-03-02T01:00:53.290Z,99.99
2024-03-02T01:01:53.196Z,99.99
2024-03-02T01:02:53.194Z,99.99
2024-03-02T01:03:53.227Z,99.99
2024-03-02T01:04:53.261Z,99.99
2024-03-02T01:05:53.130Z,99.99
2024-03-02T01:06:53.197Z,99.99
2024-03-02T01:07:53.144Z,99.99
2024-03-02T01:08:53.832Z,99.99
2024-03-02T01:09:53.172Z,99.99
2024-03-02T01:10:53.120Z,99.99
2024-03-02T01:11:53.077Z,99.99
2024-03-02T01:12:53.108Z,99.99
2024-03-02T01:13:53.490Z,99.99
2024-03-02T01:14:53.073Z,99.99
2024-03-02T01:15:53.139Z,99.99
2024-03-02T01:16:53.030Z,99.99
2024-03-02T01:17:55.833Z,99.99
2024-03-02T01:18:53.182Z,99.99
2024-03-02T01:19:53.022Z,99.99
2024-03-02T01:20:53.072Z,99.99
2024-03-02T01:21:53.111Z,99.99
2024-03-02T01:22:53.003Z,99.99
2024-03-02T01:23:53.045Z,99.99
2024-03-02T01:24:53.186Z,99.99
2024-03-02T01:25:53.076Z,99.99
2024-03-02T01:26:53.047Z,99.99
2024-03-02T01:27:53.011Z,99.99
2024-03-02T01:28:52.995Z,99.99
2024-03-02T01:29:53.025Z,99.99
2024-03-02T01:30:53.041Z,99.99
2024-03-02T01:31:52.943Z,99.99
2024-03-02T01:32:53.044Z,99.99
2024-03-02T01:33:52.989Z,99.99
2024-03-02T01:34:52.947Z,99.99
2024-03-02T01:35:52.953Z,99.99
2024-03-02T01:36:52.984Z,99.99
2024-03-02T01:37:52.925Z,99.99
2024-03-02T01:38:53.668Z,99.99
2024-03-02T01:39:53.097Z,99.99
2024-03-02T01:40:53.021Z,99.99
2024-03-02T01:41:52.921Z,99.99
2024-03-02T01:42:52.974Z,99.99
2024-03-02T01:43:52.888Z,99.99
2024-03-02T01:44:53.032Z,99.99
2024-03-02T01:45:53.005Z,99.99
2024-03-02T01:46:52.896Z,99.99
2024-03-02T01:47:52.941Z,99.99
2024-03-02T01:48:53.015Z,99.99
2024-03-02T01:49:52.881Z,99.99
2024-03-02T01:50:52.837Z,99.99
2024-03-02T01:51:52.947Z,99.99
2024-03-02T01:52:52.905Z,99.99
2024-03-02T01:53:52.896Z,99.99
2024-03-02T01:54:52.891Z,99.99
2024-03-02T01:55:52.822Z,99.99
2024-03-02T01:56:52.862Z,99.99
2024-03-02T01:57:52.843Z,99.99
2024-03-02T01:58:52.773Z,99.99
2024-03-02T01:59:52.798Z,99.99
2024-03-02T02:00:52.907Z,99.99
2024-03-02T02:01:52.814Z,99.99
2024-03-02T02:02:52.854Z,99.99
2024-03-02T02:03:52.843Z,99.99
2024-03-02T02:04:52.764Z,99.99
2024-03-02T02:05:52.775Z,99.99
2024-03-02T02:06:52.881Z,99.99
2024-03-02T02:07:52.743Z,99.99
2024-03-02T02:08:52.782Z,99.99
2024-03-02T02:09:52.874Z,99.99
2024-03-02T02:10:52.762Z,99.99
2024-03-02T02:11:52.761Z,99.99
2024-03-02T02:12:52.869Z,99.99
2024-03-02T02:13:52.750Z,99.99
2024-03-02T02:14:52.740Z,99.99
2024-03-02T02:15:52.760Z,99.99
2024-03-02T02:16:52.717Z,99.99
2024-03-02T02:17:52.763Z,99.99
2024-03-02T02:18:52.781Z,99.99
2024-03-02T02:19:52.703Z,99.99
2024-03-02T02:20:52.735Z,99.99
2024-03-02T02:21:52.782Z,99.99
2024-03-02T02:22:52.673Z,99.99
2024-03-02T02:23:52.691Z,99.99
2024-03-02T02:24:52.717Z,99.99
2024-03-02T02:25:52.669Z,99.99
2024-03-02T02:26:52.718Z,99.99
2024-03-02T02:27:52.741Z,99.99
2024-03-02T02:28:52.617Z,99.99
2024-03-02T02:29:52.594Z,99.99
2024-03-02T02:30:52.639Z,99.99
2024-03-02T02:31:52.656Z,99.99
2024-03-02T02:32:52.697Z,99.99
2024-03-02T02:33:52.664Z,99.99
2024-03-02T02:34:52.604Z,99.99
2024-03-02T02:35:52.632Z,99.99
2024-03-02T02:36:52.644Z,99.99
2024-03-02T02:37:52.609Z,99.99
2024-03-02T02:38:52.637Z,99.99
2024-03-02T02:39:52.604Z,99.99
2024-03-02T02:40:52.674Z,99.99
2024-03-02T02:41:52.600Z,99.99
2024-03-02T02:42:52.572Z,99.99
2024-03-02T02:43:52.628Z,99.99
2024-03-02T02:44:52.688Z,99.99
2024-03-02T02:45:52.656Z,99.99
2024-03-02T02:46:52.531Z,99.99
2024-03-02T02:47:52.571Z,99.99
2024-03-02T02:48:52.614Z,99.99
2024-03-02T02:49:52.552Z,99.99
2024-03-02T02:50:52.526Z,99.99
2024-03-02T02:51:52.557Z,99.99
2024-03-02T02:52:52.566Z,99.99
2024-03-02T02:53:52.513Z,99.99
2024-03-02T02:54:52.598Z,99.99
2024-03-02T02:55:52.537Z,99.99
2024-03-02T02:56:52.532Z,99.99
2024-03-02T02:57:52.595Z,99.99
2024-03-02T02:58:52.574Z,99.99
2024-03-02T02:59:52.481Z,99.99
2024-03-02T03:00:52.649Z,99.99
2024-03-02T03:01:52.593Z,99.99
2024-03-02T03:02:52.460Z,99.99
2024-03-02T03:03:52.483Z,99.99
2024-03-02T03:04:52.607Z,99.99
2024-03-02T03:05:52.424Z,99.99
2024-03-02T03:06:52.576Z,99.99
2024-03-02T03:07:52.469Z,99.99
2024-03-02T03:08:52.797Z,99.99
2024-03-02T03:09:52.561Z,99.99
2024-03-02T03:10:52.450Z,99.99
2024-03-02T03:11:52.423Z,99.99
2024-03-02T03:12:52.441Z,99.99
2024-03-02T03:13:52.386Z,99.99
2024-03-02T03:14:52.409Z,99.99
2024-03-02T03:15:52.362Z,99.99
2024-03-02T03:16:52.346Z,99.99
2024-03-02T03:17:52.434Z,99.99
2024-03-02T03:18:52.503Z,99.99
2024-03-02T03:19:52.465Z,99.99
2024-03-02T03:20:52.500Z,99.99
2024-03-02T03:21:52.595Z,99.99
2024-03-02T03:22:52.329Z,99.99
2024-03-02T03:23:52.336Z,99.99
2024-03-02T03:24:52.453Z,99.99
2024-03-02T03:25:52.285Z,99.99
2024-03-02T03:26:52.580Z,99.99
2024-03-02T03:27:52.409Z,99.99
2024-03-02T03:28:52.332Z,99.99
2024-03-02T03:29:52.338Z,99.99
2024-03-02T03:30:52.377Z,99.99
2024-03-02T03:31:52.300Z,99.99
2024-03-02T03:32:52.407Z,99.99
2024-03-02T03:33:52.321Z,99.99
2024-03-02T03:34:52.309Z,99.99
2024-03-02T03:35:52.211Z,99.99
2024-03-02T03:36:52.391Z,99.99
2024-03-02T03:37:52.259Z,99.99
2024-03-02T03:38:52.352Z,99.99
2024-03-02T03:39:52.378Z,99.99
2024-03-02T03:40:52.259Z,99.99
2024-03-02T03:41:52.290Z,99.99
2024-03-02T03:42:52.249Z,99.99
2024-03-02T03:43:52.261Z,99.99
2024-03-02T03:44:52.233Z,99.99
2024-03-02T03:45:52.194Z,99.99
2024-03-02T03:46:52.233Z,99.99
2024-03-02T03:47:52.261Z,99.99
2024-03-02T03:48:52.239Z,99.99
2024-03-02T03:49:52.254Z,99.99
2024-03-02T03:50:52.206Z,99.99
2024-03-02T03:51:52.228Z,99.99
2024-03-02T03:52:52.183Z,99.99
2024-03-02T03:53:52.198Z,99.99
2024-03-02T03:54:52.249Z,99.99
2024-03-02T03:55:52.149Z,99.99
2024-03-02T03:56:52.292Z,99.99
2024-03-02T03:57:52.119Z,99.99
2024-03-02T03:58:52.108Z,99.99
2024-03-02T03:59:52.173Z,99.99
2024-03-02T04:00:52.223Z,99.99
2024-03-02T04:01:52.229Z,99.99
2024-03-02T04:02:52.168Z,99.99
2024-03-02T04:03:52.267Z,99.99
2024-03-02T04:04:52.140Z,99.99
2024-03-02T04:05:52.118Z,99.99
2024-03-02T04:06:52.214Z,99.99
2024-03-02T04:07:52.070Z,99.99
2024-03-02T04:08:52.107Z,99.99
2024-03-02T04:09:52.193Z,99.99
2024-03-02T04:10:52.095Z,99.99
2024-03-02T04:11:52.086Z,99.99
2024-03-02T04:12:52.172Z,99.99
2024-03-02T04:13:52.062Z,99.99
2024-03-02T04:14:52.131Z,99.99
2024-03-02T04:15:52.056Z,99.99
2024-03-02T04:16:52.030Z,99.99
2024-03-02T04:17:52.108Z,99.99
2024-03-02T04:18:52.070Z,99.99
2024-03-02T04:19:52.084Z,99.99
2024-03-02T04:20:54.368Z,99.99
2024-03-02T04:21:52.151Z,99.99
2024-03-02T04:22:51.978Z,99.99
2024-03-02T04:23:51.988Z,99.99
2024-03-02T04:24:52.094Z,99.99
2024-03-02T04:25:51.967Z,99.99
2024-03-02T04:26:52.071Z,99.99
2024-03-02T04:27:52.093Z,99.99
2024-03-02T04:28:51.974Z,99.99
2024-03-02T04:29:52.043Z,99.99
2024-03-02T04:30:52.058Z,99.99
2024-03-02T04:31:52.004Z,99.99
2024-03-02T04:32:52.017Z,99.99
2024-03-02T04:33:51.996Z,99.99
2024-03-02T04:34:51.947Z,99.99
2024-03-02T04:35:52.020Z,99.99
2024-03-02T04:36:51.993Z,99.99
2024-03-02T04:37:51.933Z,99.99
2024-03-02T04:38:51.941Z,99.99
2024-03-02T04:39:51.956Z,99.99
2024-03-02T04:40:51.903Z,99.99
2024-03-02T04:41:51.928Z,99.99
2024-03-02T04:42:51.919Z,99.99
2024-03-02T04:43:51.898Z,99.99
2024-03-02T04:44:51.963Z,99.99
2024-03-02T04:45:51.889Z,99.99
2024-03-02T04:46:51.891Z,99.99
2024-03-02T04:47:51.903Z,99.99
2024-03-02T04:48:51.961Z,99.99
2024-03-02T04:49:51.891Z,99.99
2024-03-02T04:51:36.094Z,99.99
2024-03-02T04:52:35.976Z,99.99
2024-03-02T04:53:36.069Z,99.99
2024-03-02T04:54:36.179Z,99.99
2024-03-02T04:55:35.941Z,99.99
2024-03-02T04:56:36.130Z,99.99
2024-03-02T04:57:36.181Z,99.99
2024-03-02T04:58:35.944Z,99.99
2024-03-02T04:59:35.924Z,99.99
2024-03-02T05:00:36.165Z,99.99
2024-03-02T05:01:35.950Z,99.99
2024-03-02T05:02:35.909Z,99.99
2024-03-02T05:03:36.144Z,99.99
2024-03-02T05:04:35.867Z,99.99
2024-03-02T05:05:36.000Z,99.99
2024-03-02T05:06:36.004Z,99.99
2024-03-02T05:07:36.028Z,99.99
2024-03-02T05:08:35.871Z,99.99
2024-03-02T05:09:35.878Z,99.99
2024-03-02T05:10:35.854Z,99.99
2024-03-02T05:11:35.908Z,99.99
2024-03-02T05:12:35.993Z,99.99
2024-03-02T05:13:35.831Z,99.99
2024-03-02T05:14:35.784Z,99.99
2024-03-02T05:15:35.948Z,99.99
2024-03-02T05:16:35.809Z,99.99
2024-03-02T05:17:35.984Z,99.99
2024-03-02T05:18:35.926Z,99.99
2024-03-02T05:19:35.876Z,99.99
2024-03-02T05:20:35.783Z,99.99
2024-03-02T05:21:35.855Z,99.99
2024-03-02T05:22:35.882Z,99.99
2024-03-02T05:23:35.881Z,99.99
2024-03-02T05:24:35.782Z,99.99
2024-03-02T05:25:35.808Z,99.99
2024-03-02T05:26:35.755Z,99.99
2024-03-02T05:27:35.872Z,99.99
2024-03-02T05:28:35.738Z,99.99
2024-03-02T05:29:35.713Z,99.99
2024-03-02T05:30:35.931Z,99.99
2024-03-02T05:31:35.688Z,99.99
2024-03-02T05:32:35.690Z,99.99
2024-03-02T05:33:35.859Z,99.99
2024-03-02T05:34:35.776Z,99.99
2024-03-02T05:35:35.679Z,99.99
2024-03-02T05:36:35.789Z,99.99
2024-03-02T05:37:35.785Z,99.99
2024-03-02T05:38:35.731Z,99.99
2024-03-02T05:39:35.864Z,99.99
2024-03-02T05:40:35.677Z,99.99
2024-03-02T05:41:35.679Z,99.99
2024-03-02T05:42:35.711Z,99.99
2024-03-02T05:43:35.694Z,99.99
2024-03-02T05:44:35.610Z,99.99
2024-03-02T05:45:35.729Z,99.99
2024-03-02T05:46:36.885Z,99.99
2024-03-02T05:47:35.717Z,99.99
2024-03-02T05:48:35.666Z,99.99
2024-03-02T05:49:35.700Z,99.99
2024-03-02T05:50:35.610Z,99.99
2024-03-02T05:51:35.648Z,99.99
2024-03-02T05:52:35.601Z,99.99
2024-03-02T05:53:35.625Z,99.99
2024-03-02T05:54:35.612Z,99.99
2024-03-02T05:55:35.619Z,99.99
2024-03-02T05:56:35.702Z,99.99
2024-03-02T05:57:35.710Z,99.99
2024-03-02T05:59:22.041Z,99.99
2024-03-02T06:00:33.325Z,99.99
2024-03-02T06:01:22.139Z,99.99
2024-03-02T06:02:21.940Z,99.99
2024-03-02T06:03:34.151Z,99.99
2024-03-02T06:04:21.889Z,99.99
2024-03-02T06:05:21.902Z,99.99
2024-03-02T06:06:21.899Z,99.99
2024-03-02T06:07:21.883Z,99.99
2024-03-02T06:08:34.084Z,99.99
2024-03-02T06:09:21.878Z,99.99
2024-03-02T06:10:21.956Z,99.99
2024-03-02T06:11:21.865Z,99.99
2024-03-02T06:12:22.047Z,99.99
2024-03-02T06:13:21.910Z,99.99
2024-03-02T06:14:21.867Z,99.99
2024-03-02T06:15:22.022Z,99.99
2024-03-02T06:16:22.001Z,99.99
2024-03-02T06:17:21.798Z,99.99
2024-03-02T06:18:21.868Z,99.99
2024-03-02T06:19:21.852Z,99.99
2024-03-02T06:20:21.842Z,99.99
2024-03-02T06:21:21.946Z,99.99
2024-03-02T06:22:22.047Z,99.99
2024-03-02T06:23:21.786Z,99.99
2024-03-02T06:24:21.892Z,99.99
2024-03-02T06:25:21.767Z,99.99
2024-03-02T06:26:24.472Z,99.99
2024-03-02T06:27:21.884Z,99.99
2024-03-02T06:28:21.770Z,99.99
2024-03-02T06:29:21.749Z,99.99
2024-03-02T06:30:21.753Z,99.99
2024-03-02T06:31:21.748Z,99.99
2024-03-02T06:32:21.788Z,99.99
2024-03-02T06:33:21.901Z,99.99
2024-03-02T06:34:21.817Z,99.99
2024-03-02T06:35:21.800Z,99.99
2024-03-02T06:36:21.771Z,99.99
2024-03-02T06:37:21.773Z,99.99
2024-03-02T06:38:21.841Z,99.99
2024-03-02T06:39:21.747Z,99.99
2024-03-02T06:40:21.680Z,99.99
2024-03-02T06:41:21.690Z,99.99
2024-03-02T06:42:21.805Z,99.99
2024-03-02T06:43:21.728Z,99.99
2024-03-02T06:44:21.713Z,99.99
2024-03-02T06:45:21.693Z,99.99
2024-03-02T06:46:21.872Z,99.99
2024-03-02T06:47:21.773Z,99.99
2024-03-02T06:48:21.730Z,99.99
2024-03-02T06:49:21.667Z,99.99
2024-03-02T06:50:21.646Z,99.99
2024-03-02T06:51:21.700Z,99.99
2024-03-02T06:52:24.844Z,99.99
2024-03-02T06:53:21.612Z,99.99
2024-03-02T06:54:21.695Z,99.99
2024-03-02T06:55:21.596Z,99.99
2024-03-02T06:56:21.657Z,99.99
2024-03-02T06:57:21.617Z,99.99
2024-03-02T06:58:21.555Z,99.99
2024-03-02T06:59:21.665Z,99.99
2024-03-02T07:00:21.843Z,99.99
2024-03-02T07:01:24.536Z,99.99
2024-03-02T07:02:21.590Z,99.99
2024-03-02T07:03:21.557Z,99.99
2024-03-02T07:04:21.553Z,99.99
2024-03-02T07:05:21.637Z,99.99
2024-03-02T07:06:21.537Z,99.99
2024-03-02T07:07:21.502Z,99.99
2024-03-02T07:08:21.557Z,99.99
2024-03-02T07:09:21.606Z,99.99
2024-03-02T07:10:21.512Z,99.99
2024-03-02T07:11:21.925Z,99.99
2024-03-02T07:12:21.557Z,99.99
2024-03-02T07:13:21.584Z,99.99
2024-03-02T07:14:21.461Z,99.99
2024-03-02T07:15:21.538Z,99.99
2024-03-02T07:16:21.482Z,99.99
2024-03-02T07:17:21.531Z,99.99
2024-03-02T07:18:21.635Z,99.99
2024-03-02T07:19:21.511Z,99.99
2024-03-02T07:20:21.461Z,99.99
2024-03-02T07:21:21.485Z,99.99
2024-03-02T07:22:21.434Z,99.99
2024-03-02T07:23:21.439Z,99.99
2024-03-02T07:24:21.446Z,99.99
2024-03-02T07:27:21.515Z,99.99
2024-03-02T07:28:21.386Z,99.99
2024-03-02T07:29:21.457Z,99.99
2024-03-02T07:30:21.456Z,99.99
2024-03-02T07:31:21.330Z,99.99
2024-03-02T07:32:21.372Z,99.99
2024-03-02T07:33:21.467Z,99.99
2024-03-02T07:34:21.431Z,99.99
2024-03-02T07:35:21.349Z,99.99
2024-03-02T07:36:21.381Z,99.99
2024-03-02T07:37:21.388Z,99.99
2024-03-02T07:38:21.337Z,99.99
2024-03-02T07:39:21.344Z,99.99
2024-03-02T07:40:33.431Z,99.99
2024-03-02T07:41:21.484Z,99.99
2024-03-02T07:42:21.302Z,99.99
2024-03-02T07:43:21.546Z,99.99
2024-03-02T07:44:21.439Z,99.99
2024-03-02T07:45:21.368Z,99.99
2024-03-02T07:46:21.351Z,99.99
2024-03-02T07:47:21.309Z,99.99
2024-03-02T07:48:21.380Z,99.99
2024-03-02T07:49:21.289Z,99.99
2024-03-02T07:50:21.259Z,99.99
2024-03-02T07:51:21.253Z,99.99
2024-03-02T07:52:21.202Z,99.99
2024-03-02T07:53:21.298Z,99.99
2024-03-02T07:54:21.333Z,99.99
2024-03-02T07:55:21.266Z,99.99
2024-03-02T07:56:21.251Z,99.99
2024-03-02T07:57:21.338Z,99.99
2024-03-02T07:58:21.223Z,99.99
2024-03-02T07:59:21.198Z,99.99
2024-03-02T08:00:21.227Z,99.99
2024-03-02T08:01:21.345Z,99.99
2024-03-02T08:02:21.189Z,99.99
2024-03-02T08:03:21.203Z,99.99
2024-03-02T08:04:21.185Z,99.99
2024-03-02T08:05:21.182Z,99.99
2024-03-02T08:06:21.189Z,99.99
2024-03-02T08:07:21.173Z,99.99
2024-03-02T08:08:21.215Z,99.99
2024-03-02T08:09:21.223Z,99.99
2024-03-02T08:10:21.142Z,99.99
2024-03-02T08:11:21.186Z,99.99
2024-03-02T08:12:21.244Z,99.99
2024-03-02T08:13:21.147Z,99.99
2024-03-02T08:14:21.151Z,99.99
2024-03-02T08:15:21.230Z,99.99
2024-03-02T08:16:21.120Z,99.99
2024-03-02T08:17:21.192Z,99.99
2024-03-02T08:18:21.152Z,99.99
2024-03-02T08:19:21.107Z,99.99
2024-03-02T08:20:21.815Z,99.99
2024-03-02T08:21:21.290Z,99.99
2024-03-02T08:22:21.128Z,99.99
2024-03-02T08:23:21.107Z,99.99
2024-03-02T08:24:21.149Z,99.99
2024-03-02T08:25:21.101Z,99.99
2024-03-02T08:26:21.113Z,99.99
2024-03-02T08:27:21.110Z,99.99
2024-03-02T08:28:21.102Z,99.99
2024-03-02T08:29:21.059Z,99.99
2024-03-02T08:30:21.111Z,99.99
2024-03-02T08:31:21.110Z,99.99
2024-03-02T08:32:21.115Z,99.99
2024-03-02T08:33:21.134Z,99.99
2024-03-02T08:34:21.094Z,99.99
2024-03-02T08:35:21.022Z,99.99
2024-03-02T08:36:21.022Z,99.99
2024-03-02T08:37:21.032Z,99.99
2024-03-02T08:38:21.006Z,99.99
2024-03-02T08:39:21.067Z,99.99
2024-03-02T08:40:20.977Z,99.99
2024-03-02T08:41:21.037Z,99.99
2024-03-02T08:42:21.013Z,99.99
2024-03-02T08:43:20.959Z,99.99
2024-03-02T08:44:20.947Z,99.99
2024-03-02T08:45:21.014Z,99.99
2024-03-02T08:46:20.982Z,99.99
2024-03-02T08:47:20.914Z,99.99
2024-03-02T08:48:21.018Z,99.99
2024-03-02T08:49:20.914Z,99.99
2024-03-02T08:50:20.926Z,99.99
2024-03-02T08:51:20.960Z,99.99
2024-03-02T08:52:20.928Z,99.99
2024-03-02T08:53:20.920Z,99.99
2024-03-02T08:54:20.897Z,99.99
2024-03-02T08:55:20.870Z,99.99
2024-03-02T08:56:20.915Z,99.99
2024-03-02T08:57:20.996Z,99.99
2024-03-02T08:58:20.846Z,99.99
2024-03-02T08:59:20.900Z,99.99
2024-03-02T09:00:20.911Z,99.99
2024-03-02T09:01:21.117Z,99.99
2024-03-02T09:02:20.842Z,99.99
2024-03-02T09:03:20.920Z,99.99
2024-03-02T09:04:22.661Z,99.99
2024-03-02T09:05:20.893Z,99.99
2024-03-02T09:06:20.823Z,99.99
2024-03-02T09:07:20.845Z,99.99
2024-03-02T09:08:20.833Z,99.99
2024-03-02T09:09:20.884Z,99.99
2024-03-02T09:10:20.812Z,99.99
2024-03-02T09:11:20.814Z,99.99
2024-03-02T09:12:20.780Z,99.99
2024-03-02T09:13:20.764Z,99.99
2024-03-02T09:14:20.740Z,99.99
2024-03-02T09:15:20.905Z,99.99
2024-03-02T09:16:20.809Z,99.99
2024-03-02T09:17:20.725Z,99.99
2024-03-02T09:18:20.830Z,99.99
2024-03-02T09:19:20.747Z,99.99
2024-03-02T09:20:20.789Z,99.99
2024-03-02T09:21:20.730Z,99.99
2024-03-02T09:22:20.679Z,99.99
2024-03-02T09:23:20.678Z,99.99
2024-03-02T09:24:21.452Z,99.99
2024-03-02T09:25:20.714Z,99.99
2024-03-02T09:26:20.697Z,99.99
2024-03-02T09:27:20.817Z,99.99
2024-03-02T09:28:20.829Z,99.99
2024-03-02T09:29:20.717Z,99.99
2024-03-02T09:30:20.724Z,99.99
2024-03-02T09:31:20.678Z,99.99
2024-03-02T09:32:20.700Z,99.99
2024-03-02T09:33:20.752Z,99.99
2024-03-02T09:34:20.685Z,99.99
2024-03-02T09:35:20.708Z,99.99
2024-03-02T09:36:20.709Z,99.99
2024-03-02T09:37:20.656Z,99.99
2024-03-02T09:38:20.634Z,99.48
2024-03-02T09:39:20.657Z,98.92
2024-03-02T09:40:20.631Z,98.50
2024-03-02T09:41:20.961Z,97.99
2024-03-02T09:42:22.087Z,97.78
2024-03-02T09:43:20.575Z,97.99
2024-03-02T09:44:20.624Z,98.10
2024-03-02T09:45:20.663Z,98.05
2024-03-02T09:46:20.702Z,98.15
2024-03-02T09:47:20.621Z,98.25
2024-03-02T09:48:20.546Z,98.25
2024-03-02T09:49:20.580Z,98.15
2024-03-02T09:50:20.578Z,97.90
2024-03-02T09:51:21.156Z,97.60
2024-03-02T09:52:20.595Z,97.49
2024-03-02T09:53:20.545Z,97.49
2024-03-02T09:54:22.978Z,97.28
2024-03-02T09:55:20.545Z,97.18
2024-03-02T09:56:20.573Z,96.62
2024-03-02T09:57:20.530Z,96.00
2024-03-02T09:58:20.489Z,95.59
2024-03-02T09:59:20.583Z,95.49
2024-03-02T10:00:20.553Z,95.49
2024-03-02T10:01:20.690Z,95.39
2024-03-02T10:02:20.534Z,95.18
2024-03-02T10:03:20.578Z,94.87
2024-03-02T10:04:20.463Z,94.62
2024-03-02T10:05:20.468Z,94.21
2024-03-02T10:06:20.565Z,93.80
2024-03-02T10:07:20.491Z,93.90
2024-03-02T10:08:20.452Z,93.59
2024-03-02T10:09:20.490Z,93.49
2024-03-02T10:10:20.474Z,93.65
2024-03-02T10:11:20.438Z,93.76
2024-03-02T10:12:20.572Z,93.65
2024-03-02T10:13:20.425Z,93.65
2024-03-02T10:14:20.483Z,93.86
2024-03-02T10:15:20.518Z,93.86
2024-03-02T10:16:20.453Z,93.14
2024-03-02T10:17:20.399Z,92.42
2024-03-02T10:18:20.400Z,92.38
2024-03-02T10:19:20.431Z,92.27
2024-03-02T10:20:20.384Z,92.27
2024-03-02T10:21:20.387Z,92.38
2024-03-02T10:22:20.395Z,91.76
2024-03-02T10:23:20.369Z,91.25
2024-03-02T10:24:20.396Z,91.00
2024-03-02T10:25:31.631Z,91.10
2024-03-02T10:26:21.366Z,90.59
2024-03-02T10:27:20.366Z,90.28
2024-03-02T10:28:20.321Z,90.38
2024-03-02T10:29:20.372Z,90.48
2024-03-02T10:30:20.325Z,90.59
2024-03-02T10:31:20.332Z,90.69
2024-03-02T10:32:20.359Z,90.75
2024-03-02T10:33:20.520Z,90.65
2024-03-02T10:34:20.330Z,90.65
2024-03-02T10:35:20.305Z,90.65
2024-03-02T10:36:20.408Z,90.65
2024-03-02T10:37:20.304Z,90.75
2024-03-02T10:38:20.293Z,90.55
2024-03-02T10:39:20.420Z,90.34
2024-03-02T10:40:20.254Z,90.65
2024-03-02T10:41:20.332Z,90.30
2024-03-02T10:42:20.296Z,89.99
2024-03-02T10:43:20.236Z,89.99
2024-03-02T10:44:20.292Z,89.78
2024-03-02T10:45:20.336Z,89.58
2024-03-02T10:46:20.222Z,89.27
2024-03-02T10:47:20.268Z,89.17
2024-03-02T10:48:20.309Z,89.03
2024-03-02T10:49:20.321Z,88.82
2024-03-02T10:50:20.243Z,88.62
2024-03-02T10:51:20.402Z,88.51
2024-03-02T10:52:20.264Z,88.00
2024-03-02T10:53:20.193Z,88.00
2024-03-02T10:54:20.225Z,87.79
2024-03-02T10:55:20.566Z,87.79
2024-03-02T10:56:20.330Z,87.59
2024-03-02T10:57:20.293Z,87.55
2024-03-02T10:58:20.252Z,87.34
2024-03-02T10:59:20.170Z,86.83
2024-03-02T11:00:20.193Z,86.93
2024-03-02T11:01:20.273Z,87.55
2024-03-02T11:02:20.156Z,87.96
2024-03-02T11:03:20.146Z,88.17
2024-03-02T11:04:20.146Z,88.27
2024-03-02T11:05:20.096Z,87.92
2024-03-02T11:06:20.218Z,87.10
2024-03-02T11:07:20.157Z,85.87
2024-03-02T11:08:20.181Z,85.66
2024-03-02T11:09:20.135Z,85.66
2024-03-02T11:10:20.085Z,85.25
2024-03-02T11:11:20.205Z,84.84
2024-03-02T11:12:20.184Z,85.25
2024-03-02T11:13:20.066Z,85.01
2024-03-02T11:14:20.106Z,84.60
2024-03-02T11:15:20.233Z,84.39
2024-03-02T11:16:20.090Z,84.39
2024-03-02T11:17:20.054Z,84.60
2024-03-02T11:18:20.940Z,84.80
2024-03-02T11:19:20.063Z,85.52
2024-03-02T11:20:20.068Z,85.69
2024-03-02T11:21:20.073Z,85.58
2024-03-02T11:22:20.028Z,85.17
2024-03-02T11:23:19.982Z,84.56
2024-03-02T11:24:20.081Z,84.56
2024-03-02T11:25:20.108Z,83.84
2024-03-02T11:26:20.033Z,83.60
2024-03-02T11:27:20.184Z,82.98
2024-03-02T11:28:19.964Z,82.89
2024-03-02T11:29:20.009Z,83.09
2024-03-02T11:30:20.067Z,82.78
2024-03-02T11:31:19.958Z,82.37
2024-03-02T11:32:19.971Z,82.37
2024-03-02T11:33:20.032Z,83.36
2024-03-02T11:34:19.935Z,84.07
2024-03-02T11:35:20.042Z,83.56
2024-03-02T11:36:19.912Z,82.84
2024-03-02T11:37:19.921Z,82.84
2024-03-02T11:38:19.929Z,81.10
2024-03-02T11:39:19.896Z,81.51
2024-03-02T11:40:19.907Z,82.34
2024-03-02T11:41:19.951Z,82.54
2024-03-02T11:42:19.921Z,82.09
2024-03-02T11:43:19.902Z,81.07
2024-03-02T11:44:19.927Z,80.97
2024-03-02T11:45:19.879Z,80.87
2024-03-02T11:46:19.905Z,80.25
2024-03-02T11:47:19.873Z,80.66
2024-03-02T11:48:19.918Z,80.15
2024-03-02T11:49:19.868Z,80.25
2024-03-02T11:50:19.937Z,79.33
2024-03-02T11:51:19.870Z,80.01
2024-03-02T11:52:19.820Z,80.01
2024-03-02T11:53:19.892Z,79.50
2024-03-02T11:54:19.832Z,79.80
2024-03-02T11:55:19.872Z,79.91
2024-03-02T11:56:19.821Z,80.21
2024-03-02T11:57:19.823Z,80.01
2024-03-02T11:58:19.803Z,80.83
2024-03-02T11:59:19.795Z,80.69
2024-03-02T12:00:19.774Z,79.97
2024-03-02T12:01:19.794Z,80.07
2024-03-02T12:02:19.934Z,78.64
2024-03-02T12:03:19.789Z,77.93
2024-03-02T12:04:19.803Z,78.13
2024-03-02T12:05:19.748Z,77.72
2024-03-02T12:06:19.853Z,77.31
2024-03-02T12:07:19.737Z,78.13
2024-03-02T12:08:19.745Z,78.64
2024-03-02T12:09:19.712Z,78.54
2024-03-02T12:10:19.762Z,78.54
2024-03-02T12:11:19.789Z,78.61
2024-03-02T12:12:19.729Z,78.61
2024-03-02T12:13:19.718Z,78.20
2024-03-02T12:14:19.738Z,78.61
2024-03-02T12:15:19.690Z,78.20
2024-03-02T12:16:19.738Z,78.41
2024-03-02T12:17:19.706Z,78.50
2024-03-02T12:18:19.671Z,77.28
2024-03-02T12:19:19.720Z,77.18
2024-03-02T12:20:19.695Z,77.79
2024-03-02T12:21:19.661Z,77.34
2024-03-02T12:22:19.642Z,77.25
2024-03-02T12:23:19.626Z,76.73
2024-03-02T12:24:19.659Z,77.55
2024-03-02T12:25:19.697Z,77.25
2024-03-02T12:26:19.642Z,77.34
2024-03-02T12:27:19.623Z,77.45
2024-03-02T12:28:19.617Z,77.34
2024-03-02T12:29:19.627Z,77.75
2024-03-02T12:30:19.635Z,76.53
2024-03-02T12:31:19.605Z,76.80
2024-03-02T12:32:19.609Z,76.90
2024-03-02T12:33:19.589Z,76.59
2024-03-02T12:34:19.793Z,76.09
2024-03-02T12:35:19.829Z,74.66
2024-03-02T12:36:19.579Z,74.86
2024-03-02T12:37:19.571Z,73.84
2024-03-02T12:38:19.573Z,74.15
2024-03-02T12:39:19.537Z,74.93
2024-03-02T12:40:19.595Z,75.13
2024-03-02T12:41:19.524Z,74.62
2024-03-02T12:42:19.515Z,74.42
2024-03-02T12:43:19.519Z,74.83
2024-03-02T12:44:19.590Z,73.57
2024-03-02T12:45:19.521Z,72.75
2024-03-02T12:46:19.508Z,74.08
2024-03-02T12:47:19.477Z,74.08
2024-03-02T12:48:19.581Z,73.36
2024-03-02T12:49:19.513Z,73.13
2024-03-02T12:50:19.547Z,73.54
2024-03-02T12:51:19.473Z,72.31
2024-03-02T12:52:20.415Z,73.02
2024-03-02T12:53:19.468Z,72.78
2024-03-02T12:54:19.480Z,72.69
2024-03-02T12:55:19.462Z,71.77
2024-03-02T12:56:19.513Z,72.78